Vienna, VA

4:39 AM EDT on October 26, 2014 (GMT -0400)
Falls Church-Westwood Park | Change Station
CLOSE
Current Station
Personal Weather Station
Location: Falls Church, VA
Elevation: 479 ft
Nearby Weather Stations

Elev 479 ft 38.89 °N, 77.20 °W | Updated 0 second ago

Clear
Clear
61.0 °F
Feels Like 61.0 °F
N
6.0
Wind Variable Wind from WNW
Gusts 10.0 mph

Today
High -- | Low -- °F
--% Chance of Precip.
Yesterday
High -- | Low -- °F
Precip. -- in
7:29 AM 6:15 PM
Waxing Crescent, 6% visible
Pressure 29.70 in
Visibility 10.0 miles
Clouds Few 6000 ft
Dew Point 45 °F
Humidity 56%
Rainfall 0.00 in
Snow Depth Not available.
UV 0 out of 12
Pollen 1.90 out of 12
Ozone Good
PM2.5 Moderate
Flu Activity Sporadic
METAR KDCA 260752Z 28013G22KT 10SM FEW060 19/05 A2970 RMK AO2 SLP057 T01890050 $

More Conditions Fewer Conditions

Pressure 29.70 in
Visibility 10.0 miles
Clouds Few 6000 ft
Dew Point 45 °F
Humidity 56%
Rainfall 0.00 in
Snow Depth Not available.
UV 0 out of 12
Pollen 1.90 out of 12
Ozone Good
PM2.5 Moderate
Flu Activity Sporadic
METAR KDCA 260752Z 28013G22KT 10SM FEW060 19/05 A2970 RMK AO2 SLP057 T01890050 $

More Conditions Fewer Conditions

10-Day Weather Forecast

Almanac

Astronomy

Oct. 26, 2014 Rise Set
Actual Time 7:29 AM EDT 6:15 PM EDT
Civil Twilight 7:02 AM EDT 6:42 PM EDT
Nautical Twilight 6:31 AM EDT 7:14 PM EDT
Astronomical Twilight 6:00 AM EDT 7:44 PM EDT
Moon 10:04 AM EDT 8:26 PM EDT
Length of Visible Light 11h 40m
Length of Day
10h 45m
Tomorrow will be 2m 19s shorter.
Waxing Crescent, 6% of the Moon is Illuminated
Today
Waxing Crescent
Oct 30
First Quarter
Nov 6
Full
Nov 14
Last Quarter
Nov 22
New

Today's Extremes

State Highs State Lows

Community

WunderPhotos

Upload Photos

1,765,127 photos uploaded!

Nearby

Air Quality

  Air Quality AQ Index Pollutant
Yesterday Good
OZONE
Yesterday Good
PM10
Current Moderate
PM2.5
Current Good
OZONE
Sunday Good
PM2.5
Monday Good
PM2.5
Tuesday Good
PM2.5
Wednesday Good
PM2.5

Snow Depth

Station Depth Elevation
No new snow has been reported.

Earthquake Activity

City Distance Mag. Time & Date
No recent earthquake activity has been reported nearby.
Minimum magnitude displayed is 2.5.

Coastal Water Temperatures

Place Temperature
Washington, DC 60.1 °F
Baltimore, MD 64.0 °F
Solomons Island, MD 63.0 °F

Nearby Weather Stations